sensor_id;sensor_type;location;lat;lon;timestamp;P1;durP1;ratioP1;P2;durP2;ratioP2
18172;SDS011;9211;48.818;9.312;2023-10-19T00:00:48;22.73;;;15.37;;
18172;SDS011;9211;48.818;9.312;2023-10-19T00:03:17;21.85;;;15.00;;
18172;SDS011;9211;48.818;9.312;2023-10-19T00:05:46;22.70;;;15.15;;
18172;SDS011;9211;48.818;9.312;2023-10-19T00:08:12;21.95;;;14.43;;
18172;SDS011;9211;48.818;9.312;2023-10-19T00:10:45;20.25;;;14.57;;
18172;SDS011;9211;48.818;9.312;2023-10-19T00:13:13;24.13;;;14.95;;
18172;SDS011;9211;48.818;9.312;2023-10-19T00:15:44;20.77;;;15.13;;
18172;SDS011;9211;48.818;9.312;2023-10-19T00:18:13;21.20;;;14.52;;
18172;SDS011;9211;48.818;9.312;2023-10-19T00:20:49;23.35;;;15.18;;
18172;SDS011;9211;48.818;9.312;2023-10-19T00:23:17;23.23;;;14.97;;
18172;SDS011;9211;48.818;9.312;2023-10-19T00:25:50;20.48;;;14.13;;
18172;SDS011;9211;48.818;9.312;2023-10-19T00:28:16;20.83;;;14.10;;
18172;SDS011;9211;48.818;9.312;2023-10-19T00:30:43;21.42;;;13.88;;
18172;SDS011;9211;48.818;9.312;2023-10-19T00:33:10;19.10;;;13.82;;
18172;SDS011;9211;48.818;9.312;2023-10-19T00:35:43;21.98;;;13.52;;
18172;SDS011;9211;48.818;9.312;2023-10-19T00:38:17;16.23;;;11.90;;
18172;SDS011;9211;48.818;9.312;2023-10-19T00:40:52;16.85;;;10.65;;
18172;SDS011;9211;48.818;9.312;2023-10-19T00:43:27;14.18;;;9.57;;
18172;SDS011;9211;48.818;9.312;2023-10-19T00:45:58;12.50;;;8.70;;
18172;SDS011;9211;48.818;9.312;2023-10-19T00:48:28;12.32;;;7.78;;
18172;SDS011;9211;48.818;9.312;2023-10-19T00:50:57;14.55;;;7.75;;
18172;SDS011;9211;48.818;9.312;2023-10-19T00:53:36;11.52;;;7.68;;
18172;SDS011;9211;48.818;9.312;2023-10-19T00:56:04;11.00;;;7.27;;
18172;SDS011;9211;48.818;9.312;2023-10-19T00:58:35;10.73;;;6.25;;
18172;SDS011;9211;48.818;9.312;2023-10-19T01:01:06;11.57;;;7.00;;
18172;SDS011;9211;48.818;9.312;2023-10-19T01:03:34;15.90;;;11.10;;
18172;SDS011;9211;48.818;9.312;2023-10-19T01:06:04;19.60;;;12.93;;
18172;SDS011;9211;48.818;9.312;2023-10-19T01:08:40;18.98;;;13.10;;
18172;SDS011;9211;48.818;9.312;2023-10-19T01:11:10;18.80;;;14.05;;
18172;SDS011;9211;48.818;9.312;2023-10-19T01:13:40;26.38;;;14.73;;
18172;SDS011;9211;48.818;9.312;2023-10-19T01:16:14;19.67;;;12.32;;
18172;SDS011;9211;48.818;9.312;2023-10-19T01:18:46;16.98;;;11.77;;
18172;SDS011;9211;48.818;9.312;2023-10-19T01:21:13;14.13;;;9.55;;
18172;SDS011;9211;48.818;9.312;2023-10-19T01:23:46;14.55;;;10.05;;
18172;SDS011;9211;48.818;9.312;2023-10-19T01:26:14;13.52;;;10.40;;
18172;SDS011;9211;48.818;9.312;2023-10-19T01:28:47;10.35;;;7.22;;
18172;SDS011;9211;48.818;9.312;2023-10-19T01:31:17;13.32;;;8.63;;
18172;SDS011;9211;48.818;9.312;2023-10-19T01:33:56;10.52;;;6.82;;
18172;SDS011;9211;48.818;9.312;2023-10-19T01:36:26;10.77;;;7.10;;
18172;SDS011;9211;48.818;9.312;2023-10-19T01:38:54;10.55;;;6.40;;
18172;SDS011;9211;48.818;9.312;2023-10-19T01:41:26;11.37;;;6.90;;
18172;SDS011;9211;48.818;9.312;2023-10-19T01:43:53;14.85;;;9.73;;
18172;SDS011;9211;48.818;9.312;2023-10-19T01:46:22;15.93;;;10.32;;
18172;SDS011;9211;48.818;9.312;2023-10-19T01:48:50;15.32;;;10.75;;
18172;SDS011;9211;48.818;9.312;2023-10-19T01:51:20;18.33;;;11.77;;
18172;SDS011;9211;48.818;9.312;2023-10-19T01:53:48;17.95;;;12.13;;
18172;SDS011;9211;48.818;9.312;2023-10-19T01:56:18;17.47;;;12.53;;
18172;SDS011;9211;48.818;9.312;2023-10-19T01:58:45;20.70;;;13.43;;
18172;SDS011;9211;48.818;9.312;2023-10-19T02:01:13;19.02;;;13.35;;
18172;SDS011;9211;48.818;9.312;2023-10-19T02:03:45;19.43;;;13.30;;
18172;SDS011;9211;48.818;9.312;2023-10-19T02:06:18;19.85;;;13.45;;
18172;SDS011;9211;48.818;9.312;2023-10-19T02:08:45;18.50;;;12.95;;
18172;SDS011;9211;48.818;9.312;2023-10-19T02:11:20;17.50;;;12.80;;
18172;SDS011;9211;48.818;9.312;2023-10-19T02:13:47;17.83;;;12.20;;
18172;SDS011;9211;48.818;9.312;2023-10-19T02:16:15;16.02;;;10.90;;
18172;SDS011;9211;48.818;9.312;2023-10-19T02:18:42;16.30;;;10.43;;
18172;SDS011;9211;48.818;9.312;2023-10-19T02:21:09;14.77;;;10.50;;
18172;SDS011;9211;48.818;9.312;2023-10-19T02:23:38;16.42;;;11.05;;
18172;SDS011;9211;48.818;9.312;2023-10-19T02:26:07;16.67;;;11.00;;
18172;SDS011;9211;48.818;9.312;2023-10-19T02:28:34;15.57;;;10.63;;
18172;SDS011;9211;48.818;9.312;2023-10-19T02:31:04;17.13;;;10.88;;
18172;SDS011;9211;48.818;9.312;2023-10-19T02:33:41;18.25;;;10.60;;
18172;SDS011;9211;48.818;9.312;2023-10-19T02:36:11;17.60;;;9.50;;
18172;SDS011;9211;48.818;9.312;2023-10-19T02:38:41;12.70;;;9.10;;
18172;SDS011;9211;48.818;9.312;2023-10-19T02:41:13;17.38;;;9.65;;
18172;SDS011;9211;48.818;9.312;2023-10-19T02:43:42;15.60;;;9.80;;
18172;SDS011;9211;48.818;9.312;2023-10-19T02:46:11;14.68;;;10.20;;
18172;SDS011;9211;48.818;9.312;2023-10-19T02:48:38;13.73;;;9.32;;
18172;SDS011;9211;48.818;9.312;2023-10-19T02:51:09;15.80;;;10.02;;
18172;SDS011;9211;48.818;9.312;2023-10-19T02:53:36;17.80;;;10.30;;
18172;SDS011;9211;48.818;9.312;2023-10-19T02:56:11;18.67;;;10.07;;
18172;SDS011;9211;48.818;9.312;2023-10-19T02:58:40;15.93;;;9.80;;
18172;SDS011;9211;48.818;9.312;2023-10-19T03:01:13;15.85;;;9.70;;
18172;SDS011;9211;48.818;9.312;2023-10-19T03:03:42;14.02;;;9.63;;
18172;SDS011;9211;48.818;9.312;2023-10-19T03:06:11;16.08;;;9.48;;
18172;SDS011;9211;48.818;9.312;2023-10-19T03:08:38;15.43;;;9.15;;
18172;SDS011;9211;48.818;9.312;2023-10-19T03:11:05;15.95;;;9.00;;
18172;SDS011;9211;48.818;9.312;2023-10-19T03:13:32;13.00;;;8.80;;
18172;SDS011;9211;48.818;9.312;2023-10-19T03:16:00;16.33;;;9.77;;
18172;SDS011;9211;48.818;9.312;2023-10-19T03:18:32;17.67;;;10.00;;
18172;SDS011;9211;48.818;9.312;2023-10-19T03:21:00;16.80;;;10.20;;
18172;SDS011;9211;48.818;9.312;2023-10-19T03:23:26;17.38;;;10.77;;
18172;SDS011;9211;48.818;9.312;2023-10-19T03:25:54;18.38;;;9.65;;
18172;SDS011;9211;48.818;9.312;2023-10-19T03:28:36;17.02;;;9.70;;
18172;SDS011;9211;48.818;9.312;2023-10-19T03:31:04;16.17;;;9.00;;
18172;SDS011;9211;48.818;9.312;2023-10-19T03:33:32;15.05;;;9.00;;
18172;SDS011;9211;48.818;9.312;2023-10-19T03:36:01;15.68;;;9.80;;
18172;SDS011;9211;48.818;9.312;2023-10-19T03:38:30;15.90;;;10.05;;
18172;SDS011;9211;48.818;9.312;2023-10-19T03:41:02;16.33;;;10.55;;
18172;SDS011;9211;48.818;9.312;2023-10-19T03:43:34;16.48;;;10.88;;
18172;SDS011;9211;48.818;9.312;2023-10-19T03:46:06;17.83;;;10.43;;
18172;SDS011;9211;48.818;9.312;2023-10-19T03:48:47;17.15;;;10.60;;
18172;SDS011;9211;48.818;9.312;2023-10-19T03:51:14;20.77;;;11.52;;
18172;SDS011;9211;48.818;9.312;2023-10-19T03:53:42;15.87;;;10.90;;
18172;SDS011;9211;48.818;9.312;2023-10-19T03:56:19;14.68;;;9.95;;
18172;SDS011;9211;48.818;9.312;2023-10-19T03:58:47;18.67;;;11.60;;
18172;SDS011;9211;48.818;9.312;2023-10-19T04:01:17;17.02;;;10.63;;
18172;SDS011;9211;48.818;9.312;2023-10-19T04:03:45;19.20;;;11.35;;
18172;SDS011;9211;48.818;9.312;2023-10-19T04:06:12;17.50;;;10.45;;
18172;SDS011;9211;48.818;9.312;2023-10-19T04:08:40;14.48;;;9.38;;
18172;SDS011;9211;48.818;9.312;2023-10-19T04:11:10;12.30;;;6.97;;
18172;SDS011;9211;48.818;9.312;2023-10-19T04:13:47;18.45;;;9.40;;
18172;SDS011;9211;48.818;9.312;2023-10-19T04:16:19;15.48;;;9.40;;
18172;SDS011;9211;48.818;9.312;2023-10-19T04:18:46;16.63;;;10.02;;
18172;SDS011;9211;48.818;9.312;2023-10-19T04:21:16;15.27;;;9.87;;
18172;SDS011;9211;48.818;9.312;2023-10-19T04:23:43;20.42;;;10.93;;
18172;SDS011;9211;48.818;9.312;2023-10-19T04:26:11;15.77;;;10.75;;
18172;SDS011;9211;48.818;9.312;2023-10-19T04:28:40;18.73;;;11.65;;
18172;SDS011;9211;48.818;9.312;2023-10-19T04:31:14;20.35;;;10.90;;
18172;SDS011;9211;48.818;9.312;2023-10-19T04:33:43;16.98;;;9.93;;
18172;SDS011;9211;48.818;9.312;2023-10-19T04:36:14;18.45;;;11.00;;
18172;SDS011;9211;48.818;9.312;2023-10-19T04:38:44;23.08;;;12.07;;
18172;SDS011;9211;48.818;9.312;2023-10-19T04:41:12;18.85;;;11.10;;
18172;SDS011;9211;48.818;9.312;2023-10-19T04:43:40;22.25;;;12.07;;
18172;SDS011;9211;48.818;9.312;2023-10-19T04:46:13;23.23;;;11.38;;
18172;SDS011;9211;48.818;9.312;2023-10-19T04:48:40;22.33;;;11.48;;
18172;SDS011;9211;48.818;9.312;2023-10-19T04:51:08;18.88;;;11.50;;
18172;SDS011;9211;48.818;9.312;2023-10-19T04:53:36;21.15;;;10.88;;
18172;SDS011;9211;48.818;9.312;2023-10-19T04:56:03;17.83;;;10.90;;
18172;SDS011;9211;48.818;9.312;2023-10-19T04:58:31;20.23;;;10.75;;
18172;SDS011;9211;48.818;9.312;2023-10-19T05:00:58;21.13;;;10.60;;
18172;SDS011;9211;48.818;9.312;2023-10-19T05:03:26;20.40;;;10.80;;
18172;SDS011;9211;48.818;9.312;2023-10-19T05:05:53;17.83;;;10.82;;
18172;SDS011;9211;48.818;9.312;2023-10-19T05:08:23;17.98;;;11.52;;
18172;SDS011;9211;48.818;9.312;2023-10-19T05:10:53;18.00;;;10.98;;
18172;SDS011;9211;48.818;9.312;2023-10-19T05:13:20;16.52;;;11.10;;
18172;SDS011;9211;48.818;9.312;2023-10-19T05:15:47;17.65;;;10.50;;
18172;SDS011;9211;48.818;9.312;2023-10-19T05:18:14;19.00;;;11.23;;
18172;SDS011;9211;48.818;9.312;2023-10-19T05:20:41;20.67;;;10.73;;
18172;SDS011;9211;48.818;9.312;2023-10-19T05:23:08;18.00;;;10.98;;
18172;SDS011;9211;48.818;9.312;2023-10-19T05:25:37;18.27;;;11.02;;
18172;SDS011;9211;48.818;9.312;2023-10-19T05:28:04;18.00;;;10.80;;
18172;SDS011;9211;48.818;9.312;2023-10-19T05:30:31;17.65;;;10.45;;
18172;SDS011;9211;48.818;9.312;2023-10-19T05:32:59;16.52;;;11.00;;
18172;SDS011;9211;48.818;9.312;2023-10-19T05:35:27;16.83;;;11.10;;
18172;SDS011;9211;48.818;9.312;2023-10-19T05:38:05;16.50;;;11.03;;
18172;SDS011;9211;48.818;9.312;2023-10-19T05:40:33;18.83;;;10.80;;
18172;SDS011;9211;48.818;9.312;2023-10-19T05:43:02;16.38;;;10.60;;
18172;SDS011;9211;48.818;9.312;2023-10-19T05:45:29;14.47;;;10.03;;
18172;SDS011;9211;48.818;9.312;2023-10-19T05:47:57;15.57;;;9.93;;
18172;SDS011;9211;48.818;9.312;2023-10-19T05:50:25;14.82;;;10.25;;
18172;SDS011;9211;48.818;9.312;2023-10-19T05:52:53;15.50;;;10.40;;
18172;SDS011;9211;48.818;9.312;2023-10-19T05:55:20;17.00;;;10.40;;
18172;SDS011;9211;48.818;9.312;2023-10-19T05:57:47;18.05;;;11.00;;
18172;SDS011;9211;48.818;9.312;2023-10-19T06:00:15;16.92;;;10.60;;
18172;SDS011;9211;48.818;9.312;2023-10-19T06:02:46;15.98;;;10.30;;
18172;SDS011;9211;48.818;9.312;2023-10-19T06:05:15;16.00;;;10.00;;
18172;SDS011;9211;48.818;9.312;2023-10-19T06:07:42;14.00;;;9.65;;
18172;SDS011;9211;48.818;9.312;2023-10-19T06:10:13;17.23;;;10.10;;
18172;SDS011;9211;48.818;9.312;2023-10-19T06:12:44;13.75;;;9.70;;
18172;SDS011;9211;48.818;9.312;2023-10-19T06:15:11;18.30;;;10.67;;
18172;SDS011;9211;48.818;9.312;2023-10-19T06:17:41;17.65;;;10.68;;
18172;SDS011;9211;48.818;9.312;2023-10-19T06:20:09;13.10;;;8.77;;
18172;SDS011;9211;48.818;9.312;2023-10-19T06:22:45;17.23;;;10.63;;
18172;SDS011;9211;48.818;9.312;2023-10-19T06:25:15;19.35;;;10.40;;
18172;SDS011;9211;48.818;9.312;2023-10-19T06:27:43;19.02;;;10.80;;
18172;SDS011;9211;48.818;9.312;2023-10-19T06:30:11;20.17;;;11.48;;
18172;SDS011;9211;48.818;9.312;2023-10-19T06:32:44;17.92;;;10.45;;
18172;SDS011;9211;48.818;9.312;2023-10-19T06:35:15;17.67;;;11.10;;
18172;SDS011;9211;48.818;9.312;2023-10-19T06:37:43;17.60;;;10.73;;
18172;SDS011;9211;48.818;9.312;2023-10-19T06:40:10;16.83;;;10.45;;
18172;SDS011;9211;48.818;9.312;2023-10-19T06:42:40;19.20;;;10.70;;
18172;SDS011;9211;48.818;9.312;2023-10-19T06:45:07;15.17;;;10.20;;
18172;SDS011;9211;48.818;9.312;2023-10-19T06:47:35;18.15;;;10.85;;
18172;SDS011;9211;48.818;9.312;2023-10-19T06:50:05;16.40;;;10.90;;
18172;SDS011;9211;48.818;9.312;2023-10-19T06:52:35;19.58;;;10.60;;
18172;SDS011;9211;48.818;9.312;2023-10-19T06:55:02;15.57;;;10.23;;
18172;SDS011;9211;48.818;9.312;2023-10-19T06:57:30;16.38;;;10.40;;
18172;SDS011;9211;48.818;9.312;2023-10-19T06:59:57;16.63;;;10.23;;
18172;SDS011;9211;48.818;9.312;2023-10-19T07:02:24;16.33;;;10.07;;
18172;SDS011;9211;48.818;9.312;2023-10-19T07:04:51;16.55;;;9.80;;
18172;SDS011;9211;48.818;9.312;2023-10-19T07:07:23;16.70;;;10.27;;
18172;SDS011;9211;48.818;9.312;2023-10-19T07:09:50;13.93;;;9.90;;
18172;SDS011;9211;48.818;9.312;2023-10-19T07:12:17;16.37;;;10.37;;
18172;SDS011;9211;48.818;9.312;2023-10-19T07:14:44;18.97;;;10.60;;
18172;SDS011;9211;48.818;9.312;2023-10-19T07:17:12;16.92;;;10.35;;
18172;SDS011;9211;48.818;9.312;2023-10-19T07:19:41;14.68;;;9.63;;
18172;SDS011;9211;48.818;9.312;2023-10-19T07:22:10;15.85;;;10.18;;
18172;SDS011;9211;48.818;9.312;2023-10-19T07:24:38;14.90;;;9.85;;
18172;SDS011;9211;48.818;9.312;2023-10-19T07:27:05;16.23;;;10.27;;
18172;SDS011;9211;48.818;9.312;2023-10-19T07:29:33;14.75;;;9.77;;
18172;SDS011;9211;48.818;9.312;2023-10-19T07:32:01;15.60;;;10.40;;
18172;SDS011;9211;48.818;9.312;2023-10-19T07:34:31;15.60;;;10.32;;
18172;SDS011;9211;48.818;9.312;2023-10-19T07:36:58;19.13;;;10.40;;
18172;SDS011;9211;48.818;9.312;2023-10-19T07:39:25;15.50;;;10.43;;
18172;SDS011;9211;48.818;9.312;2023-10-19T07:41:56;15.52;;;10.35;;
18172;SDS011;9211;48.818;9.312;2023-10-19T07:44:23;16.90;;;10.63;;
18172;SDS011;9211;48.818;9.312;2023-10-19T07:46:50;16.77;;;10.48;;
18172;SDS011;9211;48.818;9.312;2023-10-19T07:49:18;16.40;;;10.60;;
18172;SDS011;9211;48.818;9.312;2023-10-19T07:51:47;20.23;;;9.95;;
18172;SDS011;9211;48.818;9.312;2023-10-19T07:54:15;17.38;;;10.70;;
18172;SDS011;9211;48.818;9.312;2023-10-19T07:56:41;15.77;;;10.03;;
18172;SDS011;9211;48.818;9.312;2023-10-19T07:59:10;14.55;;;9.30;;
18172;SDS011;9211;48.818;9.312;2023-10-19T08:01:38;14.57;;;8.80;;
18172;SDS011;9211;48.818;9.312;2023-10-19T08:04:05;12.85;;;7.85;;
18172;SDS011;9211;48.818;9.312;2023-10-19T08:06:32;14.88;;;8.60;;
18172;SDS011;9211;48.818;9.312;2023-10-19T08:08:59;20.27;;;11.27;;
18172;SDS011;9211;48.818;9.312;2023-10-19T08:11:26;16.88;;;10.20;;
18172;SDS011;9211;48.818;9.312;2023-10-19T08:13:52;16.15;;;10.35;;
18172;SDS011;9211;48.818;9.312;2023-10-19T08:16:21;16.88;;;10.13;;
18172;SDS011;9211;48.818;9.312;2023-10-19T08:18:49;15.05;;;9.98;;
18172;SDS011;9211;48.818;9.312;2023-10-19T08:21:18;15.52;;;9.85;;
18172;SDS011;9211;48.818;9.312;2023-10-19T08:23:46;13.40;;;9.48;;
18172;SDS011;9211;48.818;9.312;2023-10-19T08:26:13;13.88;;;9.75;;
18172;SDS011;9211;48.818;9.312;2023-10-19T08:28:41;16.58;;;9.07;;
18172;SDS011;9211;48.818;9.312;2023-10-19T08:31:08;12.48;;;8.80;;
18172;SDS011;9211;48.818;9.312;2023-10-19T08:33:37;15.50;;;8.77;;
18172;SDS011;9211;48.818;9.312;2023-10-19T08:36:06;13.10;;;8.70;;
18172;SDS011;9211;48.818;9.312;2023-10-19T08:38:43;12.10;;;7.95;;
18172;SDS011;9211;48.818;9.312;2023-10-19T08:41:10;13.00;;;7.80;;
18172;SDS011;9211;48.818;9.312;2023-10-19T08:43:37;11.10;;;7.60;;
18172;SDS011;9211;48.818;9.312;2023-10-19T08:46:05;11.68;;;7.32;;
18172;SDS011;9211;48.818;9.312;2023-10-19T08:48:33;10.93;;;7.57;;
18172;SDS011;9211;48.818;9.312;2023-10-19T08:51:03;10.95;;;7.10;;
18172;SDS011;9211;48.818;9.312;2023-10-19T08:53:36;12.00;;;6.85;;
18172;SDS011;9211;48.818;9.312;2023-10-19T08:56:06;10.18;;;7.45;;
18172;SDS011;9211;48.818;9.312;2023-10-19T08:58:34;10.27;;;6.60;;
18172;SDS011;9211;48.818;9.312;2023-10-19T09:01:01;11.63;;;6.88;;
18172;SDS011;9211;48.818;9.312;2023-10-19T09:03:31;10.40;;;6.55;;
18172;SDS011;9211;48.818;9.312;2023-10-19T09:06:00;10.73;;;6.80;;
18172;SDS011;9211;48.818;9.312;2023-10-19T09:08:28;11.87;;;5.97;;
18172;SDS011;9211;48.818;9.312;2023-10-19T09:11:05;9.00;;;6.00;;
18172;SDS011;9211;48.818;9.312;2023-10-19T09:13:40;9.80;;;6.28;;
18172;SDS011;9211;48.818;9.312;2023-10-19T09:16:10;9.07;;;5.53;;
18172;SDS011;9211;48.818;9.312;2023-10-19T09:18:37;11.43;;;5.85;;
18172;SDS011;9211;48.818;9.312;2023-10-19T09:21:03;10.45;;;5.60;;
18172;SDS011;9211;48.818;9.312;2023-10-19T09:23:38;9.38;;;4.88;;
18172;SDS011;9211;48.818;9.312;2023-10-19T09:26:07;10.20;;;5.43;;
18172;SDS011;9211;48.818;9.312;2023-10-19T09:28:34;8.18;;;4.82;;
18172;SDS011;9211;48.818;9.312;2023-10-19T09:31:02;7.78;;;4.60;;
18172;SDS011;9211;48.818;9.312;2023-10-19T09:33:31;9.30;;;4.93;;
18172;SDS011;9211;48.818;9.312;2023-10-19T09:36:00;11.30;;;6.20;;
18172;SDS011;9211;48.818;9.312;2023-10-19T09:38:29;9.57;;;5.60;;
18172;SDS011;9211;48.818;9.312;2023-10-19T09:40:59;9.15;;;5.70;;
18172;SDS011;9211;48.818;9.312;2023-10-19T09:43:30;8.75;;;5.00;;
18172;SDS011;9211;48.818;9.312;2023-10-19T09:46:01;9.60;;;4.80;;
18172;SDS011;9211;48.818;9.312;2023-10-19T09:48:34;7.25;;;3.88;;
18172;SDS011;9211;48.818;9.312;2023-10-19T09:51:09;9.00;;;4.03;;
18172;SDS011;9211;48.818;9.312;2023-10-19T09:53:37;7.65;;;3.95;;
18172;SDS011;9211;48.818;9.312;2023-10-19T09:56:08;7.30;;;3.83;;
18172;SDS011;9211;48.818;9.312;2023-10-19T09:58:41;6.72;;;3.40;;
18172;SDS011;9211;48.818;9.312;2023-10-19T10:01:14;6.63;;;3.30;;
18172;SDS011;9211;48.818;9.312;2023-10-19T10:03:45;8.27;;;3.70;;
18172;SDS011;9211;48.818;9.312;2023-10-19T10:06:14;6.88;;;3.22;;
18172;SDS011;9211;48.818;9.312;2023-10-19T10:08:43;6.47;;;3.10;;
18172;SDS011;9211;48.818;9.312;2023-10-19T10:11:16;4.13;;;2.80;;
18172;SDS011;9211;48.818;9.312;2023-10-19T10:13:44;5.90;;;3.28;;
18172;SDS011;9211;48.818;9.312;2023-10-19T10:16:15;7.07;;;3.90;;
18172;SDS011;9211;48.818;9.312;2023-10-19T10:18:44;6.65;;;3.10;;
18172;SDS011;9211;48.818;9.312;2023-10-19T10:21:16;6.22;;;3.15;;
18172;SDS011;9211;48.818;9.312;2023-10-19T10:23:46;6.43;;;3.53;;
18172;SDS011;9211;48.818;9.312;2023-10-19T10:26:16;6.38;;;3.40;;
18172;SDS011;9211;48.818;9.312;2023-10-19T10:28:47;5.93;;;3.67;;
18172;SDS011;9211;48.818;9.312;2023-10-19T10:31:19;9.90;;;3.63;;
18172;SDS011;9211;48.818;9.312;2023-10-19T10:33:48;5.68;;;3.60;;
18172;SDS011;9211;48.818;9.312;2023-10-19T10:36:17;7.05;;;3.92;;
18172;SDS011;9211;48.818;9.312;2023-10-19T10:38:45;6.70;;;3.45;;
18172;SDS011;9211;48.818;9.312;2023-10-19T10:41:12;7.15;;;3.13;;
18172;SDS011;9211;48.818;9.312;2023-10-19T10:43:50;7.30;;;3.28;;
18172;SDS011;9211;48.818;9.312;2023-10-19T10:46:22;7.05;;;3.67;;
18172;SDS011;9211;48.818;9.312;2023-10-19T10:48:49;5.43;;;3.33;;
18172;SDS011;9211;48.818;9.312;2023-10-19T10:51:18;11.23;;;6.18;;
18172;SDS011;9211;48.818;9.312;2023-10-19T10:53:47;9.95;;;4.68;;
18172;SDS011;9211;48.818;9.312;2023-10-19T10:56:15;7.85;;;4.20;;
18172;SDS011;9211;48.818;9.312;2023-10-19T10:58:44;7.22;;;3.40;;
18172;SDS011;9211;48.818;9.312;2023-10-19T11:01:11;8.07;;;4.20;;
18172;SDS011;9211;48.818;9.312;2023-10-19T11:03:39;6.80;;;3.42;;
18172;SDS011;9211;48.818;9.312;2023-10-19T11:06:07;5.78;;;3.58;;
18172;SDS011;9211;48.818;9.312;2023-10-19T11:08:34;9.80;;;3.20;;
18172;SDS011;9211;48.818;9.312;2023-10-19T11:11:02;7.03;;;3.35;;
18172;SDS011;9211;48.818;9.312;2023-10-19T11:13:31;5.65;;;3.60;;
18172;SDS011;9211;48.818;9.312;2023-10-19T11:16:03;5.40;;;3.30;;
18172;SDS011;9211;48.818;9.312;2023-10-19T11:18:31;6.93;;;3.38;;
18172;SDS011;9211;48.818;9.312;2023-10-19T11:21:01;8.80;;;4.00;;
18172;SDS011;9211;48.818;9.312;2023-10-19T11:23:35;6.28;;;3.30;;
18172;SDS011;9211;48.818;9.312;2023-10-19T11:26:07;5.68;;;2.40;;
18172;SDS011;9211;48.818;9.312;2023-10-19T11:28:35;3.72;;;1.95;;
18172;SDS011;9211;48.818;9.312;2023-10-19T11:31:16;4.70;;;1.90;;
18172;SDS011;9211;48.818;9.312;2023-10-19T11:33:44;4.20;;;2.10;;
18172;SDS011;9211;48.818;9.312;2023-10-19T11:36:13;3.65;;;2.00;;
18172;SDS011;9211;48.818;9.312;2023-10-19T11:38:41;4.00;;;1.97;;
18172;SDS011;9211;48.818;9.312;2023-10-19T11:41:09;3.67;;;2.05;;
18172;SDS011;9211;48.818;9.312;2023-10-19T11:43:38;4.20;;;2.00;;
18172;SDS011;9211;48.818;9.312;2023-10-19T11:46:05;3.45;;;2.00;;
18172;SDS011;9211;48.818;9.312;2023-10-19T11:48:34;3.85;;;2.15;;
18172;SDS011;9211;48.818;9.312;2023-10-19T11:51:02;6.57;;;2.90;;
18172;SDS011;9211;48.818;9.312;2023-10-19T11:53:30;6.40;;;2.75;;
18172;SDS011;9211;48.818;9.312;2023-10-19T11:55:59;8.52;;;2.88;;
18172;SDS011;9211;48.818;9.312;2023-10-19T11:58:29;5.80;;;2.50;;
18172;SDS011;9211;48.818;9.312;2023-10-19T12:00:57;6.65;;;2.83;;
18172;SDS011;9211;48.818;9.312;2023-10-19T12:03:25;10.18;;;2.83;;
18172;SDS011;9211;48.818;9.312;2023-10-19T12:05:53;10.37;;;3.50;;
18172;SDS011;9211;48.818;9.312;2023-10-19T12:08:21;8.90;;;3.80;;
18172;SDS011;9211;48.818;9.312;2023-10-19T12:10:49;10.73;;;4.40;;
18172;SDS011;9211;48.818;9.312;2023-10-19T12:13:16;11.77;;;4.65;;
18172;SDS011;9211;48.818;9.312;2023-10-19T12:15:43;10.40;;;4.38;;
18172;SDS011;9211;48.818;9.312;2023-10-19T12:18:17;9.35;;;4.32;;
18172;SDS011;9211;48.818;9.312;2023-10-19T12:20:45;9.00;;;3.92;;
18172;SDS011;9211;48.818;9.312;2023-10-19T12:23:13;12.45;;;4.60;;
18172;SDS011;9211;48.818;9.312;2023-10-19T12:25:41;10.23;;;4.00;;
18172;SDS011;9211;48.818;9.312;2023-10-19T12:28:08;9.70;;;3.97;;
18172;SDS011;9211;48.818;9.312;2023-10-19T12:30:40;11.95;;;4.10;;
18172;SDS011;9211;48.818;9.312;2023-10-19T12:33:07;9.27;;;3.50;;
18172;SDS011;9211;48.818;9.312;2023-10-19T12:35:36;11.53;;;4.23;;
18172;SDS011;9211;48.818;9.312;2023-10-19T12:38:14;10.50;;;3.95;;
18172;SDS011;9211;48.818;9.312;2023-10-19T12:40:42;13.57;;;4.50;;
18172;SDS011;9211;48.818;9.312;2023-10-19T12:43:11;10.88;;;3.70;;
18172;SDS011;9211;48.818;9.312;2023-10-19T12:45:39;9.77;;;3.80;;
18172;SDS011;9211;48.818;9.312;2023-10-19T12:48:06;7.47;;;3.30;;
18172;SDS011;9211;48.818;9.312;2023-10-19T12:50:36;7.25;;;3.33;;
18172;SDS011;9211;48.818;9.312;2023-10-19T12:53:04;10.10;;;4.18;;
18172;SDS011;9211;48.818;9.312;2023-10-19T12:55:33;11.52;;;4.22;;
18172;SDS011;9211;48.818;9.312;2023-10-19T12:58:03;11.07;;;3.87;;
18172;SDS011;9211;48.818;9.312;2023-10-19T13:00:34;10.45;;;4.15;;
18172;SDS011;9211;48.818;9.312;2023-10-19T13:03:08;11.80;;;4.03;;
18172;SDS011;9211;48.818;9.312;2023-10-19T13:05:38;12.45;;;4.00;;
18172;SDS011;9211;48.818;9.312;2023-10-19T13:08:06;11.80;;;4.60;;
18172;SDS011;9211;48.818;9.312;2023-10-19T13:10:35;12.07;;;5.45;;
18172;SDS011;9211;48.818;9.312;2023-10-19T13:13:05;13.48;;;5.80;;
18172;SDS011;9211;48.818;9.312;2023-10-19T13:15:36;11.05;;;5.22;;
18172;SDS011;9211;48.818;9.312;2023-10-19T13:18:04;13.35;;;6.18;;
18172;SDS011;9211;48.818;9.312;2023-10-19T13:20:32;11.98;;;6.20;;
18172;SDS011;9211;48.818;9.312;2023-10-19T13:23:00;14.20;;;6.05;;
18172;SDS011;9211;48.818;9.312;2023-10-19T13:25:28;12.63;;;6.25;;
18172;SDS011;9211;48.818;9.312;2023-10-19T13:28:08;15.85;;;6.82;;
18172;SDS011;9211;48.818;9.312;2023-10-19T13:30:36;13.65;;;6.45;;
18172;SDS011;9211;48.818;9.312;2023-10-19T13:33:04;16.63;;;6.25;;
18172;SDS011;9211;48.818;9.312;2023-10-19T13:35:32;13.88;;;6.10;;
18172;SDS011;9211;48.818;9.312;2023-10-19T13:37:59;12.40;;;5.60;;
18172;SDS011;9211;48.818;9.312;2023-10-19T13:40:27;11.07;;;5.50;;
18172;SDS011;9211;48.818;9.312;2023-10-19T13:42:56;11.00;;;5.43;;
18172;SDS011;9211;48.818;9.312;2023-10-19T13:45:24;10.07;;;5.40;;
18172;SDS011;9211;48.818;9.312;2023-10-19T13:47:52;10.15;;;5.50;;
18172;SDS011;9211;48.818;9.312;2023-10-19T13:50:21;11.88;;;5.70;;
18172;SDS011;9211;48.818;9.312;2023-10-19T13:52:49;11.82;;;5.57;;
18172;SDS011;9211;48.818;9.312;2023-10-19T13:55:17;10.98;;;5.50;;
18172;SDS011;9211;48.818;9.312;2023-10-19T13:57:45;9.65;;;4.75;;
18172;SDS011;9211;48.818;9.312;2023-10-19T14:00:13;9.60;;;5.10;;
18172;SDS011;9211;48.818;9.312;2023-10-19T14:02:46;10.15;;;4.75;;
18172;SDS011;9211;48.818;9.312;2023-10-19T14:05:13;10.85;;;4.80;;
18172;SDS011;9211;48.818;9.312;2023-10-19T14:07:41;10.75;;;4.70;;
18172;SDS011;9211;48.818;9.312;2023-10-19T14:10:09;9.15;;;4.63;;
18172;SDS011;9211;48.818;9.312;2023-10-19T14:12:38;13.68;;;4.55;;
18172;SDS011;9211;48.818;9.312;2023-10-19T14:15:08;10.30;;;4.70;;
18172;SDS011;9211;48.818;9.312;2023-10-19T14:17:39;8.32;;;4.30;;
18172;SDS011;9211;48.818;9.312;2023-10-19T14:20:07;10.82;;;4.30;;
18172;SDS011;9211;48.818;9.312;2023-10-19T14:22:38;11.53;;;4.67;;
18172;SDS011;9211;48.818;9.312;2023-10-19T14:25:08;10.65;;;4.65;;
18172;SDS011;9211;48.818;9.312;2023-10-19T14:27:41;8.50;;;4.43;;
18172;SDS011;9211;48.818;9.312;2023-10-19T14:30:09;12.90;;;5.03;;
18172;SDS011;9211;48.818;9.312;2023-10-19T14:32:38;13.13;;;5.33;;
18172;SDS011;9211;48.818;9.312;2023-10-19T14:35:08;14.27;;;5.13;;
18172;SDS011;9211;48.818;9.312;2023-10-19T14:37:36;11.10;;;4.68;;
18172;SDS011;9211;48.818;9.312;2023-10-19T14:40:08;10.80;;;4.70;;
18172;SDS011;9211;48.818;9.312;2023-10-19T14:42:36;11.82;;;4.80;;
18172;SDS011;9211;48.818;9.312;2023-10-19T14:45:07;11.45;;;5.13;;
18172;SDS011;9211;48.818;9.312;2023-10-19T14:47:36;12.95;;;5.22;;
18172;SDS011;9211;48.818;9.312;2023-10-19T14:50:06;16.15;;;5.45;;
18172;SDS011;9211;48.818;9.312;2023-10-19T14:52:38;11.18;;;5.32;;
18172;SDS011;9211;48.818;9.312;2023-10-19T14:55:06;7.93;;;4.40;;
18172;SDS011;9211;48.818;9.312;2023-10-19T14:57:34;13.25;;;5.43;;